Frey Ranch - Fallon, Nevada Weather observations

Data are for observation ending at time listed.
 Day   Time    Ave.   Ave.  Ave.  Vector   Max.   Stn.    Total    Solar   Ave.  
  of    of     Air    Rel.  Wind   Wind    Wind   Baro.  Precip.   Rad.    Soil  
Year   Day     Temp.  Hum.  Speed  Dir.    Gust   Pres.                    Temp. 
2014   (PST)    F      %     mph   deg.    mph     mb.     in.     W/m2     F   
------------------------------------------------------------------------------
 293    0:00   52.4    44    1.9    57      4.0   999.0    0.00       0    63.2
 293    0:10   51.1    47    1.9    55      3.9   999.0    0.00       0    63.1
 293    0:20   49.6    47    2.0    81      3.3   999.0    0.00       0    63.1
 293    0:30   48.0    47    1.9    82      2.8   999.0    0.00       0    63.0
 293    0:40   47.6    47    1.5   102      2.8   999.0    0.00       0    63.0
 293    0:50   48.2    48    2.0   120      4.6   999.0    0.00       0    63.0
 293    1:00   50.3    46    2.7   129      5.7   999.0    0.00       0    62.9
 293    1:10   50.4    47    1.9   122      3.9   999.0    0.00       0    62.9
 293    1:20   49.6    48    3.0    84      4.3   999.0    0.00       0    62.9
 293    1:30   49.2    47    2.3    84      3.8   999.0    0.00       0    62.9
 293    1:40   48.9    47    2.7    79      4.8   999.0    0.00       0    62.8
 293    1:50   48.2    47    3.1    70      5.0   999.0    0.00       0    62.8
 293    2:00   48.1    49    2.8    72      4.3   999.0    0.00       0    62.8
 293    2:10   47.4    50    2.5   335      5.2   999.0    0.00       0    62.7
 293    2:20   45.8    54    1.7   332      3.5   999.0    0.00       0    62.7
 293    2:30   44.5    57    1.7   322      2.9   999.0    0.00       0    62.7
 293    2:40   45.5    55    2.2   327      3.1   999.0    0.00       0    62.7
 293    2:50   45.5    54    1.5   345      3.4   999.0    0.00       0    62.6
 293    3:00   43.0    60    3.2   310      5.0   999.0    0.00       0    62.6
 293    3:10   44.3    56    4.3   324      6.0   999.0    0.00       0    62.5
 293    3:20   45.8    54    1.3   329      3.4   999.0    0.00       0    62.5
 293    3:30   44.2    55    0.5   164      3.1   999.0    0.00       0    62.5
 293    3:40   41.8    59    2.5    72      4.8   999.0    0.00       0    62.4
 293    3:50   42.7    58    0.6    26      2.7   999.0    0.00       0    62.3
 293    4:00   40.5    62    1.6   296      3.7   999.0    0.00       0    62.3
 293    4:10   38.1    66    3.4   287      5.0   999.0    0.00       0    62.3
 293    4:20   39.4    64    1.6   303      3.1   999.0    0.00       0    62.2
 293    4:30   41.5    58    0.6   266      4.5   999.0    0.00       0    62.2
 293    4:40   41.4    57    0.5   220      1.9   999.0    0.00       0    62.1
 293    4:50   40.8    57    0.4   233      1.9   999.0    0.00       0    62.1
 293    5:00   39.6    58    2.0   110      5.2   999.0    0.00       0    62.0
 293    5:10   39.3    63    2.1   100      3.6   999.0    0.00       0    62.0
 293    5:20   40.0    63    1.5    64      3.7   999.0    0.00       0    61.9
 293    5:30   40.3    62    1.8    54      4.5   999.0    0.00       0    61.9
 293    5:40   40.3    64    1.5    58      4.2   999.0    0.00       0    61.9
 293    5:50   40.4    64    2.0    36      4.0   999.0    0.00       1    61.8
 293    6:00   41.8    56    2.6    10      4.6   999.0    0.00       3    61.8
 293    6:10   41.1    57    2.2   334      4.8   999.0    0.00       9    61.8
 293    6:20   40.7    60    1.2   318      2.3   999.0    0.00      22    61.7
 293    6:30   42.5    54    1.0    10      3.1   999.0    0.00      49    61.7
 293    6:40   44.7    50    2.4    79      3.7   999.0    0.00      82    61.6
 293    6:50   45.5    52    2.0   350      3.8   999.0    0.00     122    61.6
 293    7:00   47.5    47    1.5    18      3.3   999.0    0.00     158    61.6
 293    7:10   48.4    48    0.9    51      3.1   999.0    0.00     189    61.5
 293    7:20   49.7    48    1.3   307      4.7   999.0    0.00     216    61.5
 293    7:30   52.0    45    0.8   268      2.9   999.0    0.00     246    61.4
 293    7:40   53.6    44    0.4   226      1.8   999.0    0.00     276    61.4
 293    7:50   55.3    40    0.8   190      2.9   999.0    0.00     304    61.3
 293    8:00   55.7    41    1.4   305      3.6   999.0    0.00     331    61.3
 293    8:10   58.1    38    0.7    55      2.4   999.0    0.00     364    61.3
 293    8:20   59.9    34    0.2    67      1.1   999.0    0.00     393    61.2
 293    8:30   62.2    33    0.5    48      2.0   999.0    0.00     422    61.2
 293    8:40   63.8    31    0.3    40      1.4   999.0    0.00     449    61.2
 293    8:50   65.0    30    0.3    18      1.9   999.0    0.00     474    61.1
 293    9:00   66.5    29    0.7    27      2.7   999.0    0.00     499    61.1
 293    9:10   67.2    27    0.8    77      2.7   999.0    0.00     524    61.1
 293    9:20   68.6    26    0.2    69      2.6   999.0    0.00     543    61.1
 293    9:30   69.9    24    1.5   152      5.9   999.0    0.00     564    61.0
 293    9:40   69.4    25    3.2   150      5.4   999.0    0.00     585    61.0
 293    9:50   70.7    24    1.7   149      9.0   999.0    0.00     600    61.0
 293   10:00   71.9    24    2.4   132      6.3   999.0    0.00     619    60.9
 293   10:10   72.0    24    3.8   134      6.8   999.0    0.00     637    60.9
 293   10:20   72.7    23    1.8   151      7.3   999.0    0.00     650    60.9
 293   10:30   73.8    22    3.2   198      7.0   999.0    0.00     663    60.8
 293   10:40   73.7    22    5.1   211      9.4   999.0    0.00     673    60.8
 293   10:50   73.6    22    5.5   207      9.3   999.0    0.00     682    60.8
 293   11:00   74.0    21    6.0   209      9.8   999.0    0.00     688    60.8
 293   11:10   74.8    20    5.9   204      9.3   999.0    0.00     695    60.7
 293   11:20   75.1    20    5.1   187      9.8   999.0    0.00     700    60.7
 293   11:30   75.6    19    5.8   201      9.9   999.0    0.00     702    60.7
 293   11:40   76.2    18    4.9   205      9.1   999.0    0.00     702    60.7
 293   11:50   76.5    17    6.9   211     11.7   999.0    0.00     699    60.7
 293   12:00   76.8    17    7.1   177     12.6   999.0    0.00     695    60.7
 293   12:10   77.0    17    5.2   240     10.4   999.0    0.00     691    60.7
 293   12:20   77.1    17    4.8   196     10.5   999.0    0.00     682    60.8
 293   12:30   78.3    16    6.1   183     11.5   999.0    0.00     675    60.8
 293   12:40   78.0    17    3.2   246      6.2   999.0    0.00     667    60.8
 293   12:50   79.0    17    3.3   255      7.4   999.0    0.00     654    60.8
 293   13:00   79.1    16    4.2   207     10.2   999.0    0.00     642    60.9
 293   13:10   79.2    15    4.2   221     11.0   999.0    0.00     627    60.9
 293   13:20   78.6    15    4.3   218     12.4   999.0    0.00     613    60.9
 293   13:30   79.7    14    5.9   238     12.1   999.0    0.00     599    61.0
 293   13:40   80.1    13    6.9   216     12.5   999.0    0.00     577    61.0
 293   13:50   80.0    13    6.8   262     12.6   999.0    0.00     560    61.1
 293   14:00   79.9    13    8.0   251     20.5   999.0    0.00     538    61.1
 293   14:10   80.3    12    7.5   246     17.6   999.0    0.00     513    61.2
 293   14:20   80.0    12    7.3   238     12.7   999.0    0.00     489    61.2
 293   14:30   79.7    12    5.5   228     10.8   999.0    0.00     450    61.3
 293   14:40   80.4    12    6.7   242     14.9   999.0    0.00     429    61.4
 293   14:50   80.2    12    7.7   254     19.6   999.0    0.00     398    61.4
 293   15:00   79.4    13   10.5   277     18.0   999.0    0.00     369    61.5
 293   15:10   79.1    13    9.0   275     18.2   999.0    0.00     338    61.6
 293   15:20   77.9    14   11.6   274     18.1   999.0    0.00     310    61.6
 293   15:30   77.5    14   10.6   270     16.2   999.0    0.00     282    61.7
 293   15:40   77.3    14   10.8   258     19.2   999.0    0.00     251    61.8
 293   15:50   76.8    15    8.8   269     13.9   999.0    0.00     189    61.9
 293   16:00   75.0    16    8.7   274     14.4   999.0    0.00      85    62.0
 293   16:10   73.9    18    7.9   280     14.0   999.0    0.00     120    62.1
 293   16:20   74.0    18    8.1   271     13.1   999.0    0.00     134    62.2
 293   16:30   73.1    19    7.1   276     12.4   999.0    0.00     102    62.3
 293   16:40   72.3    20    5.6   274     10.7   999.0    0.00      67    62.3
 293   16:50   71.5    20    6.8   268     13.0   999.0    0.00      28    62.5
 293   17:00   70.6    20    8.0   263     15.8   999.0    0.00       9    62.5
 293   17:10   70.0    20    7.9   275     13.8   999.0    0.00       3    62.6
 293   17:20   69.5    20    9.0   281     16.3   999.0    0.00       0    62.7
 293   17:30   68.7    21    9.1   278     16.9   999.0    0.00       0    62.8
 293   17:40   68.0    21   10.1   277     17.5   999.0    0.00       0    62.9
 293   17:50   67.6    21   12.2   278     19.7   999.0    0.00       0    63.0
 293   18:00   67.2    22   13.5   273     24.4   999.0    0.00       0    63.1
 293   18:10   66.6    23   13.5   273     20.6   999.0    0.00       0    63.2
 293   18:20   65.8    24   13.1   272     22.2   999.0    0.00       0    63.3
 293   18:30   65.3    25   14.5   267     22.8   999.0    0.00       0    63.4
 293   18:40   65.2    26   14.4   267     23.2   999.0    0.00       0    63.4
 293   18:50   65.1    26   13.8   267     24.5   999.0    0.00       0    63.5
 293   19:00   64.7    26   14.2   268     23.2   999.0    0.00       0    63.6
 293   19:10   64.3    26   16.1   270     25.2   999.0    0.00       0    63.7
 293   19:20   63.8    27   14.8   273     25.0   999.0    0.00       0    63.7
 293   19:30   64.0    27   15.0   272     24.6   999.0    0.00       0    63.8
 293   19:40   63.7    28   15.0   272     24.0   999.0    0.00       0    63.9
 293   19:50   63.2    29   13.9   270     23.5   999.0    0.00       0    63.9
 293   20:00   62.8    30   13.7   272     24.2   999.0    0.00       0    64.0
 293   20:10   61.9    31   11.9   268     19.5   999.0    0.00       0    64.0
 293   20:20   61.9    30   11.1   268     19.5   999.0    0.00       0    64.1
 293   20:30   62.1    29   11.5   271     18.5   999.0    0.00       0    64.1

Return to Frey Ranch - Fallon, Nevada graphs page.


Western Regional Climate Center,wrcc@dri.edu